createdAt,value
2022-11-27T00:03:21.166Z,4.00
2022-11-27T00:08:25.971Z,4.20
2022-11-27T00:13:27.977Z,4.40
2022-11-27T00:18:29.876Z,4.50
2022-11-27T00:23:32.558Z,4.70
2022-11-27T00:28:34.853Z,4.70
2022-11-27T00:33:37.504Z,4.80
2022-11-27T00:38:39.703Z,4.80
2022-11-27T00:43:45.452Z,4.90
2022-11-27T00:48:47.495Z,5.00
2022-11-27T00:53:49.351Z,5.00
2022-11-27T00:58:51.668Z,5.10
2022-11-27T01:03:55.124Z,5.10
2022-11-27T01:08:58.272Z,5.10
2022-11-27T01:14:02.739Z,5.10
2022-11-27T01:19:06.835Z,5.10
2022-11-27T01:24:09.855Z,5.10
2022-11-27T01:29:11.950Z,5.20
2022-11-27T01:34:17.058Z,5.20
2022-11-27T01:39:20.819Z,5.20
2022-11-27T01:44:25.680Z,5.20
2022-11-27T01:49:39.154Z,5.20
2022-11-27T01:54:50.708Z,5.20
2022-11-27T01:59:54.943Z,5.30
2022-11-27T02:04:56.785Z,5.30
2022-11-27T02:09:58.727Z,5.40
2022-11-27T02:15:10.550Z,5.40
2022-11-27T02:20:42.083Z,5.50
2022-11-27T02:25:58.582Z,5.50
2022-11-27T02:31:10.587Z,5.50
2022-11-27T02:36:15.663Z,5.50
2022-11-27T02:41:37.330Z,5.50
2022-11-27T02:46:40.957Z,5.50
2022-11-27T02:51:48.675Z,5.50
2022-11-27T02:56:51.664Z,5.50
2022-11-27T03:02:05.612Z,5.50
2022-11-27T03:07:16.582Z,5.50
2022-11-27T03:12:19.046Z,5.40
2022-11-27T03:17:48.552Z,5.30
2022-11-27T03:22:50.527Z,5.30
2022-11-27T03:27:59.283Z,5.10
2022-11-27T03:33:01.420Z,5.10
2022-11-27T03:38:03.314Z,5.00
2022-11-27T03:43:14.670Z,4.90
2022-11-27T03:48:25.585Z,4.80
2022-11-27T03:53:30.308Z,4.70
2022-11-27T03:58:45.179Z,4.60
2022-11-27T04:03:47.365Z,4.40
2022-11-27T04:08:49.610Z,4.30
2022-11-27T04:13:52.269Z,4.20
2022-11-27T04:18:54.149Z,4.10
2022-11-27T04:23:56.071Z,4.10
2022-11-27T04:28:57.888Z,4.10
2022-11-27T04:33:59.748Z,4.10
2022-11-27T04:39:01.558Z,4.10
2022-11-27T04:44:03.679Z,4.10
2022-11-27T04:49:05.503Z,4.10
2022-11-27T04:54:07.897Z,4.20
2022-11-27T04:59:09.879Z,4.20
2022-11-27T05:04:11.691Z,4.30
2022-11-27T05:09:13.533Z,4.30
2022-11-27T05:14:15.530Z,4.30
2022-11-27T05:19:19.638Z,4.40
2022-11-27T05:24:24.048Z,4.40
2022-11-27T05:29:26.118Z,4.50
2022-11-27T05:34:28.016Z,4.40
2022-11-27T05:39:29.871Z,4.40
2022-11-27T05:44:31.674Z,4.40
2022-11-27T05:49:33.565Z,4.40
2022-11-27T05:54:35.418Z,4.40
2022-11-27T05:59:37.318Z,4.40
2022-11-27T06:04:39.572Z,4.40
2022-11-27T06:09:41.599Z,4.50
2022-11-27T06:14:43.555Z,4.50
2022-11-27T06:19:45.640Z,4.60
2022-11-27T06:24:47.622Z,4.60
2022-11-27T06:29:49.633Z,4.60
2022-11-27T06:34:51.459Z,4.50
2022-11-27T06:39:53.350Z,4.60
2022-11-27T06:44:55.331Z,4.70
2022-11-27T06:49:57.166Z,4.90
2022-11-27T06:54:58.986Z,5.00
2022-11-27T07:00:00.867Z,5.20
2022-11-27T07:05:02.722Z,5.30
2022-11-27T07:10:05.204Z,5.30
2022-11-27T07:15:10.012Z,5.30
2022-11-27T07:20:12.306Z,5.30
2022-11-27T07:25:14.140Z,5.40
2022-11-27T07:30:16.194Z,5.50
2022-11-27T07:35:18.538Z,5.60
2022-11-27T07:40:20.412Z,5.60
2022-11-27T07:45:22.315Z,5.80
2022-11-27T07:50:24.143Z,6.00
2022-11-27T07:55:25.988Z,6.10
2022-11-27T08:00:27.907Z,6.60
2022-11-27T08:05:34.099Z,7.40
2022-11-27T08:10:37.912Z,8.40
2022-11-27T08:15:39.741Z,8.70
2022-11-27T08:20:41.595Z,8.90
2022-11-27T08:25:43.550Z,8.70
2022-11-27T08:30:45.431Z,8.70
2022-11-27T08:35:50.444Z,8.80
2022-11-27T08:41:01.104Z,9.30
2022-11-27T08:46:04.823Z,9.70
2022-11-27T08:51:08.702Z,10.10
2022-11-27T08:56:15.425Z,10.50
2022-11-27T09:01:21.627Z,10.70
2022-11-27T09:06:28.750Z,11.20
2022-11-27T09:11:32.028Z,11.70
2022-11-27T09:16:33.977Z,11.90
2022-11-27T09:21:35.835Z,12.10
2022-11-27T09:26:39.139Z,12.20
2022-11-27T09:31:41.045Z,12.30
2022-11-27T09:36:42.943Z,12.50
2022-11-27T09:41:47.339Z,12.70
2022-11-27T09:46:50.761Z,12.80
2022-11-27T09:52:06.447Z,12.90
2022-11-27T09:57:17.119Z,13.00
2022-11-27T10:02:32.086Z,13.20
2022-11-27T10:07:54.187Z,13.30
2022-11-27T10:13:03.787Z,13.30
2022-11-27T10:18:38.657Z,13.30
2022-11-27T10:23:46.513Z,13.00
2022-11-27T10:28:48.459Z,12.90
2022-11-27T10:33:56.727Z,13.00
2022-11-27T10:39:03.455Z,13.30
2022-11-27T10:44:20.586Z,13.60
2022-11-27T10:49:22.424Z,13.80
2022-11-27T10:54:31.911Z,13.90
2022-11-27T10:59:36.196Z,14.00
2022-11-27T11:04:54.480Z,13.80
2022-11-27T11:10:00.003Z,13.80
2022-11-27T11:15:12.001Z,13.80
2022-11-27T11:20:24.273Z,13.80
2022-11-27T11:25:26.119Z,13.90
2022-11-27T11:30:30.216Z,13.80
2022-11-27T11:35:36.215Z,13.60
2022-11-27T11:40:38.283Z,13.30
2022-11-27T11:45:48.783Z,13.00
2022-11-27T11:50:57.840Z,12.60
2022-11-27T11:56:11.883Z,12.50
2022-11-27T12:01:31.916Z,12.50
2022-11-27T12:06:45.690Z,12.40
2022-11-27T12:12:04.969Z,12.20
2022-11-27T12:17:17.140Z,12.10
2022-11-27T12:22:31.068Z,11.70
2022-11-27T12:28:10.416Z,11.40
2022-11-27T12:33:43.587Z,11.10
2022-11-27T12:39:32.124Z,11.00
2022-11-27T12:45:22.528Z,10.80
2022-11-27T12:50:42.351Z,10.70
2022-11-27T12:55:52.660Z,10.60
2022-11-27T13:01:01.703Z,10.60
2022-11-27T13:06:11.492Z,10.50
2022-11-27T13:11:17.803Z,10.50
2022-11-27T13:16:31.877Z,10.40
2022-11-27T13:21:34.794Z,10.40
2022-11-27T13:27:00.929Z,10.20
2022-11-27T13:32:04.509Z,10.10
2022-11-27T13:37:07.466Z,10.00
2022-11-27T13:42:18.810Z,9.90
2022-11-27T13:47:23.260Z,9.90
2022-11-27T13:52:25.292Z,9.80
2022-11-27T13:57:30.527Z,9.70
2022-11-27T14:02:51.839Z,9.60
2022-11-27T14:07:55.258Z,9.50
2022-11-27T14:13:04.062Z,9.30
2022-11-27T14:18:06.147Z,9.20
2022-11-27T14:23:13.667Z,9.10
2022-11-27T14:28:26.103Z,9.00
2022-11-27T14:33:47.376Z,8.90
2022-11-27T14:38:56.835Z,8.70
2022-11-27T14:44:06.150Z,8.50
2022-11-27T14:49:17.428Z,8.40
2022-11-27T14:54:25.867Z,8.20
2022-11-27T14:59:28.466Z,8.10
2022-11-27T15:04:35.848Z,7.90
2022-11-27T15:09:37.687Z,7.70
2022-11-27T15:14:45.642Z,7.50
2022-11-27T15:19:47.809Z,7.30
2022-11-27T15:25:06.176Z,7.10
2022-11-27T15:30:09.073Z,7.00
2022-11-27T15:35:15.461Z,6.80
2022-11-27T15:40:27.682Z,6.60
2022-11-27T15:45:33.088Z,6.40
2022-11-27T15:50:34.956Z,6.20
2022-11-27T15:55:37.169Z,6.10
2022-11-27T16:00:39.863Z,6.00
2022-11-27T16:06:06.873Z,5.80
2022-11-27T16:11:14.282Z,5.70
2022-11-27T16:16:16.411Z,5.50
2022-11-27T16:21:21.723Z,5.40
2022-11-27T16:26:48.920Z,5.30
2022-11-27T16:31:51.026Z,5.30
2022-11-27T16:36:52.964Z,5.10
2022-11-27T16:41:55.084Z,5.00
2022-11-27T16:46:57.015Z,4.90
2022-11-27T16:51:58.855Z,4.80
2022-11-27T16:57:00.778Z,4.70
2022-11-27T17:02:03.879Z,4.60
2022-11-27T17:07:06.043Z,4.50
2022-11-27T17:12:07.983Z,4.40
2022-11-27T17:17:09.876Z,4.30
2022-11-27T17:22:11.719Z,4.20
2022-11-27T17:27:14.754Z,4.10
2022-11-27T17:32:18.166Z,4.00
2022-11-27T17:37:20.229Z,3.90
2022-11-27T17:42:23.000Z,3.80
2022-11-27T17:47:24.955Z,3.80
2022-11-27T17:52:26.775Z,3.70
2022-11-27T17:57:28.630Z,3.60
2022-11-27T18:02:31.584Z,3.50
2022-11-27T18:07:33.529Z,3.40
2022-11-27T18:12:35.733Z,3.20
2022-11-27T18:17:38.199Z,3.10
2022-11-27T18:22:40.157Z,3.00
2022-11-27T18:27:42.674Z,2.90
2022-11-27T18:32:44.608Z,2.90
2022-11-27T18:37:52.826Z,2.80
2022-11-27T18:42:56.174Z,2.90
2022-11-27T18:47:59.010Z,3.10
2022-11-27T18:53:03.335Z,3.30
2022-11-27T18:58:05.324Z,3.50
2022-11-27T19:03:07.163Z,3.70
2022-11-27T19:08:10.370Z,3.70
2022-11-27T19:13:12.199Z,3.80
2022-11-27T19:18:14.185Z,3.80
2022-11-27T19:23:16.265Z,3.90
2022-11-27T19:28:18.222Z,3.90
2022-11-27T19:33:20.091Z,3.80
2022-11-27T19:38:21.915Z,3.80
2022-11-27T19:43:24.923Z,3.80
2022-11-27T19:48:26.791Z,3.70
2022-11-27T19:53:28.847Z,3.80
2022-11-27T19:58:30.780Z,3.80
2022-11-27T20:03:33.308Z,3.80
2022-11-27T20:08:35.390Z,3.90
2022-11-27T20:13:37.388Z,4.00
2022-11-27T20:18:41.355Z,4.00
2022-11-27T20:23:44.176Z,4.00
2022-11-27T20:28:46.759Z,4.00
2022-11-27T20:33:48.600Z,4.00
2022-11-27T20:38:51.758Z,4.00
2022-11-27T20:43:55.496Z,4.00
2022-11-27T20:48:59.076Z,4.00
2022-11-27T20:54:02.026Z,4.00
2022-11-27T20:59:05.054Z,4.00
2022-11-27T21:04:09.795Z,4.00
2022-11-27T21:09:13.842Z,4.00
2022-11-27T21:14:16.711Z,4.00
2022-11-27T21:19:26.912Z,4.00
2022-11-27T21:24:28.887Z,3.90
2022-11-27T21:29:30.910Z,3.80
2022-11-27T21:34:32.789Z,3.80
2022-11-27T21:39:34.637Z,3.80
2022-11-27T21:44:39.791Z,3.70
2022-11-27T21:49:41.854Z,3.70
2022-11-27T21:54:43.959Z,3.60
2022-11-27T21:59:46.062Z,3.60
2022-11-27T22:04:51.048Z,3.60
2022-11-27T22:09:52.904Z,3.60
2022-11-27T22:14:54.853Z,3.60
2022-11-27T22:19:56.733Z,3.60
2022-11-27T22:24:58.745Z,3.60
2022-11-27T22:30:00.603Z,3.60
2022-11-27T22:35:05.627Z,3.60
2022-11-27T22:40:11.448Z,3.70
2022-11-27T22:45:13.628Z,3.70
2022-11-27T22:50:15.506Z,3.70
2022-11-27T22:55:17.466Z,3.80
2022-11-27T23:00:19.559Z,3.80
2022-11-27T23:05:21.406Z,3.80
2022-11-27T23:10:23.313Z,3.90
2022-11-27T23:15:25.191Z,3.90
2022-11-27T23:20:27.273Z,3.90
2022-11-27T23:25:30.867Z,3.90
2022-11-27T23:30:34.362Z,4.00
2022-11-27T23:35:36.242Z,4.00
2022-11-27T23:40:39.353Z,4.00
2022-11-27T23:45:41.407Z,4.00
2022-11-27T23:50:43.388Z,4.00
2022-11-27T23:55:45.361Z,4.10
